sensor_id;sensor_type;location;lat;lon;timestamp;P1;durP1;ratioP1;P2;durP2;ratioP2
81896;SDS011;71360;43.506;1.500;2023-07-13T00:00:28;4.38;;;1.90;;
81896;SDS011;71360;43.506;1.500;2023-07-13T00:02:53;5.23;;;1.90;;
81896;SDS011;71360;43.506;1.500;2023-07-13T00:05:20;5.20;;;2.30;;
81896;SDS011;71360;43.506;1.500;2023-07-13T00:07:46;4.93;;;2.20;;
81896;SDS011;71360;43.506;1.500;2023-07-13T00:10:13;4.15;;;1.98;;
81896;SDS011;71360;43.506;1.500;2023-07-13T00:12:39;4.67;;;2.00;;
81896;SDS011;71360;43.506;1.500;2023-07-13T00:15:26;5.65;;;2.10;;
81896;SDS011;71360;43.506;1.500;2023-07-13T00:17:52;4.18;;;1.90;;
81896;SDS011;71360;43.506;1.500;2023-07-13T00:20:20;4.82;;;2.00;;
81896;SDS011;71360;43.506;1.500;2023-07-13T00:22:48;4.22;;;2.10;;
81896;SDS011;71360;43.506;1.500;2023-07-13T00:25:15;4.27;;;1.90;;
81896;SDS011;71360;43.506;1.500;2023-07-13T00:27:42;4.18;;;2.00;;
81896;SDS011;71360;43.506;1.500;2023-07-13T00:30:09;4.53;;;2.20;;
81896;SDS011;71360;43.506;1.500;2023-07-13T00:32:35;4.07;;;1.88;;
81896;SDS011;71360;43.506;1.500;2023-07-13T00:35:01;4.23;;;2.00;;
81896;SDS011;71360;43.506;1.500;2023-07-13T00:37:28;5.32;;;2.05;;
81896;SDS011;71360;43.506;1.500;2023-07-13T00:39:54;4.90;;;2.08;;
81896;SDS011;71360;43.506;1.500;2023-07-13T00:42:19;4.40;;;1.90;;
81896;SDS011;71360;43.506;1.500;2023-07-13T00:45:00;3.90;;;2.00;;
81896;SDS011;71360;43.506;1.500;2023-07-13T00:47:49;4.13;;;2.00;;
81896;SDS011;71360;43.506;1.500;2023-07-13T00:50:15;3.90;;;1.98;;
81896;SDS011;71360;43.506;1.500;2023-07-13T00:52:44;4.30;;;1.97;;
81896;SDS011;71360;43.506;1.500;2023-07-13T00:55:13;5.25;;;2.10;;
81896;SDS011;71360;43.506;1.500;2023-07-13T00:57:40;4.00;;;1.90;;
81896;SDS011;71360;43.506;1.500;2023-07-13T01:00:07;4.40;;;1.90;;
81896;SDS011;71360;43.506;1.500;2023-07-13T01:02:35;4.50;;;2.10;;
81896;SDS011;71360;43.506;1.500;2023-07-13T01:05:09;4.73;;;2.20;;
81896;SDS011;71360;43.506;1.500;2023-07-13T01:07:36;4.40;;;2.00;;
81896;SDS011;71360;43.506;1.500;2023-07-13T01:10:03;3.83;;;1.75;;
81896;SDS011;71360;43.506;1.500;2023-07-13T01:13:07;4.68;;;2.10;;
81896;SDS011;71360;43.506;1.500;2023-07-13T01:15:40;4.05;;;1.92;;
81896;SDS011;71360;43.506;1.500;2023-07-13T01:18:28;4.00;;;2.00;;
81896;SDS011;71360;43.506;1.500;2023-07-13T01:23:22;4.18;;;1.85;;
81896;SDS011;71360;43.506;1.500;2023-07-13T01:25:48;4.55;;;1.92;;
81896;SDS011;71360;43.506;1.500;2023-07-13T01:28:13;3.73;;;1.70;;
81896;SDS011;71360;43.506;1.500;2023-07-13T01:30:42;4.75;;;1.90;;
81896;SDS011;71360;43.506;1.500;2023-07-13T01:33:10;3.95;;;1.90;;
81896;SDS011;71360;43.506;1.500;2023-07-13T01:35:41;4.28;;;2.00;;
81896;SDS011;71360;43.506;1.500;2023-07-13T01:38:08;4.90;;;2.00;;
81896;SDS011;71360;43.506;1.500;2023-07-13T01:40:34;4.63;;;2.07;;
81896;SDS011;71360;43.506;1.500;2023-07-13T01:43:01;3.65;;;1.90;;
81896;SDS011;71360;43.506;1.500;2023-07-13T01:45:26;4.45;;;2.13;;
81896;SDS011;71360;43.506;1.500;2023-07-13T01:47:52;5.57;;;2.30;;
81896;SDS011;71360;43.506;1.500;2023-07-13T01:50:17;4.30;;;2.07;;
81896;SDS011;71360;43.506;1.500;2023-07-13T01:52:43;4.13;;;1.90;;
81896;SDS011;71360;43.506;1.500;2023-07-13T01:55:09;4.00;;;1.93;;
81896;SDS011;71360;43.506;1.500;2023-07-13T01:57:34;5.15;;;2.00;;
81896;SDS011;71360;43.506;1.500;2023-07-13T02:00:02;4.20;;;2.10;;
81896;SDS011;71360;43.506;1.500;2023-07-13T02:02:30;4.60;;;1.90;;
81896;SDS011;71360;43.506;1.500;2023-07-13T02:04:55;4.68;;;2.08;;
81896;SDS011;71360;43.506;1.500;2023-07-13T02:07:21;3.87;;;1.90;;
81896;SDS011;71360;43.506;1.500;2023-07-13T02:09:46;4.53;;;2.37;;
81896;SDS011;71360;43.506;1.500;2023-07-13T02:12:12;5.10;;;2.05;;
81896;SDS011;71360;43.506;1.500;2023-07-13T02:14:38;4.20;;;1.70;;
81896;SDS011;71360;43.506;1.500;2023-07-13T02:17:03;4.03;;;1.90;;
81896;SDS011;71360;43.506;1.500;2023-07-13T02:19:30;4.32;;;2.00;;
81896;SDS011;71360;43.506;1.500;2023-07-13T02:21:55;3.70;;;1.80;;
81896;SDS011;71360;43.506;1.500;2023-07-13T02:24:21;4.43;;;2.00;;
81896;SDS011;71360;43.506;1.500;2023-07-13T02:26:46;5.17;;;2.00;;
81896;SDS011;71360;43.506;1.500;2023-07-13T02:29:12;4.30;;;1.80;;
81896;SDS011;71360;43.506;1.500;2023-07-13T02:31:38;3.40;;;1.60;;
81896;SDS011;71360;43.506;1.500;2023-07-13T02:34:04;4.23;;;1.77;;
81896;SDS011;71360;43.506;1.500;2023-07-13T02:36:30;4.67;;;1.87;;
81896;SDS011;71360;43.506;1.500;2023-07-13T02:38:56;4.70;;;1.92;;
81896;SDS011;71360;43.506;1.500;2023-07-13T02:41:23;5.47;;;1.80;;
81896;SDS011;71360;43.506;1.500;2023-07-13T02:43:48;4.03;;;1.83;;
81896;SDS011;71360;43.506;1.500;2023-07-13T02:46:14;4.53;;;2.00;;
81896;SDS011;71360;43.506;1.500;2023-07-13T02:48:39;4.33;;;1.80;;
81896;SDS011;71360;43.506;1.500;2023-07-13T02:51:05;4.78;;;1.90;;
81896;SDS011;71360;43.506;1.500;2023-07-13T02:53:32;6.03;;;2.10;;
81896;SDS011;71360;43.506;1.500;2023-07-13T02:55:58;6.00;;;1.73;;
81896;SDS011;71360;43.506;1.500;2023-07-13T02:58:23;4.50;;;1.80;;
81896;SDS011;71360;43.506;1.500;2023-07-13T03:00:49;4.80;;;1.90;;
81896;SDS011;71360;43.506;1.500;2023-07-13T03:03:15;4.70;;;1.83;;
81896;SDS011;71360;43.506;1.500;2023-07-13T03:05:42;4.60;;;1.80;;
81896;SDS011;71360;43.506;1.500;2023-07-13T03:08:10;4.18;;;1.80;;
81896;SDS011;71360;43.506;1.500;2023-07-13T03:10:36;4.60;;;1.73;;
81896;SDS011;71360;43.506;1.500;2023-07-13T03:13:02;5.05;;;1.90;;
81896;SDS011;71360;43.506;1.500;2023-07-13T03:15:28;4.07;;;1.73;;
81896;SDS011;71360;43.506;1.500;2023-07-13T03:17:54;4.30;;;1.90;;
81896;SDS011;71360;43.506;1.500;2023-07-13T03:20:19;5.50;;;2.00;;
81896;SDS011;71360;43.506;1.500;2023-07-13T03:22:45;5.30;;;1.93;;
81896;SDS011;71360;43.506;1.500;2023-07-13T03:25:10;4.07;;;1.70;;
81896;SDS011;71360;43.506;1.500;2023-07-13T03:27:37;4.80;;;1.90;;
81896;SDS011;71360;43.506;1.500;2023-07-13T03:30:03;4.70;;;1.80;;
81896;SDS011;71360;43.506;1.500;2023-07-13T03:32:30;5.60;;;2.00;;
81896;SDS011;71360;43.506;1.500;2023-07-13T03:34:55;5.47;;;2.00;;
81896;SDS011;71360;43.506;1.500;2023-07-13T03:37:21;4.70;;;1.90;;
81896;SDS011;71360;43.506;1.500;2023-07-13T03:39:46;4.73;;;1.80;;
81896;SDS011;71360;43.506;1.500;2023-07-13T03:42:12;4.40;;;1.80;;
81896;SDS011;71360;43.506;1.500;2023-07-13T03:44:38;4.03;;;1.70;;
81896;SDS011;71360;43.506;1.500;2023-07-13T03:47:05;4.93;;;1.80;;
81896;SDS011;71360;43.506;1.500;2023-07-13T03:49:31;4.60;;;1.80;;
81896;SDS011;71360;43.506;1.500;2023-07-13T03:51:57;4.63;;;1.80;;
81896;SDS011;71360;43.506;1.500;2023-07-13T03:54:23;5.03;;;1.70;;
81896;SDS011;71360;43.506;1.500;2023-07-13T03:56:48;4.35;;;1.70;;
81896;SDS011;71360;43.506;1.500;2023-07-13T03:59:14;4.80;;;1.67;;
81896;SDS011;71360;43.506;1.500;2023-07-13T04:01:39;4.57;;;1.60;;
81896;SDS011;71360;43.506;1.500;2023-07-13T04:04:05;4.57;;;1.70;;
81896;SDS011;71360;43.506;1.500;2023-07-13T04:06:30;7.33;;;1.90;;
81896;SDS011;71360;43.506;1.500;2023-07-13T04:08:58;4.60;;;1.77;;
81896;SDS011;71360;43.506;1.500;2023-07-13T04:11:26;5.97;;;1.80;;
81896;SDS011;71360;43.506;1.500;2023-07-13T04:13:53;5.72;;;1.90;;
81896;SDS011;71360;43.506;1.500;2023-07-13T04:16:19;7.00;;;1.77;;
81896;SDS011;71360;43.506;1.500;2023-07-13T04:18:46;5.93;;;1.80;;
81896;SDS011;71360;43.506;1.500;2023-07-13T04:21:12;4.47;;;1.60;;
81896;SDS011;71360;43.506;1.500;2023-07-13T04:23:38;5.75;;;1.75;;
81896;SDS011;71360;43.506;1.500;2023-07-13T04:26:04;5.60;;;1.60;;
81896;SDS011;71360;43.506;1.500;2023-07-13T04:28:29;5.38;;;1.73;;
81896;SDS011;71360;43.506;1.500;2023-07-13T04:30:55;6.67;;;2.00;;
81896;SDS011;71360;43.506;1.500;2023-07-13T04:33:21;4.68;;;1.58;;
81896;SDS011;71360;43.506;1.500;2023-07-13T04:35:48;5.18;;;1.67;;
81896;SDS011;71360;43.506;1.500;2023-07-13T04:38:14;5.20;;;1.80;;
81896;SDS011;71360;43.506;1.500;2023-07-13T04:40:42;4.80;;;1.60;;
81896;SDS011;71360;43.506;1.500;2023-07-13T04:43:10;6.68;;;2.10;;
81896;SDS011;71360;43.506;1.500;2023-07-13T04:45:36;5.37;;;1.77;;
81896;SDS011;71360;43.506;1.500;2023-07-13T04:48:02;6.55;;;1.67;;
81896;SDS011;71360;43.506;1.500;2023-07-13T04:50:27;5.47;;;1.73;;
81896;SDS011;71360;43.506;1.500;2023-07-13T04:52:53;6.17;;;1.77;;
81896;SDS011;71360;43.506;1.500;2023-07-13T04:55:19;4.53;;;1.50;;
81896;SDS011;71360;43.506;1.500;2023-07-13T04:57:45;5.78;;;1.77;;
81896;SDS011;71360;43.506;1.500;2023-07-13T05:00:11;6.18;;;1.70;;
81896;SDS011;71360;43.506;1.500;2023-07-13T05:02:38;5.32;;;1.73;;
81896;SDS011;71360;43.506;1.500;2023-07-13T05:05:05;6.17;;;1.70;;
81896;SDS011;71360;43.506;1.500;2023-07-13T05:07:31;6.15;;;1.70;;
81896;SDS011;71360;43.506;1.500;2023-07-13T05:09:58;5.78;;;1.80;;
81896;SDS011;71360;43.506;1.500;2023-07-13T05:12:25;5.50;;;1.75;;
81896;SDS011;71360;43.506;1.500;2023-07-13T05:14:51;4.75;;;1.67;;
81896;SDS011;71360;43.506;1.500;2023-07-13T05:17:16;4.80;;;1.63;;
81896;SDS011;71360;43.506;1.500;2023-07-13T05:19:42;5.80;;;1.70;;
81896;SDS011;71360;43.506;1.500;2023-07-13T05:22:08;5.07;;;1.60;;
81896;SDS011;71360;43.506;1.500;2023-07-13T05:24:36;6.10;;;1.50;;
81896;SDS011;71360;43.506;1.500;2023-07-13T05:27:02;6.32;;;1.50;;
81896;SDS011;71360;43.506;1.500;2023-07-13T05:29:27;5.57;;;1.50;;
81896;SDS011;71360;43.506;1.500;2023-07-13T05:31:53;5.00;;;1.60;;
81896;SDS011;71360;43.506;1.500;2023-07-13T05:34:20;4.90;;;1.63;;
81896;SDS011;71360;43.506;1.500;2023-07-13T05:36:45;6.57;;;1.57;;
81896;SDS011;71360;43.506;1.500;2023-07-13T05:39:11;6.27;;;1.57;;
81896;SDS011;71360;43.506;1.500;2023-07-13T05:41:36;5.57;;;1.65;;
81896;SDS011;71360;43.506;1.500;2023-07-13T05:44:02;5.53;;;1.77;;
81896;SDS011;71360;43.506;1.500;2023-07-13T05:46:28;5.47;;;1.50;;
81896;SDS011;71360;43.506;1.500;2023-07-13T05:48:54;5.10;;;1.60;;
81896;SDS011;71360;43.506;1.500;2023-07-13T05:51:19;5.60;;;1.50;;
81896;SDS011;71360;43.506;1.500;2023-07-13T05:53:45;5.53;;;1.57;;
81896;SDS011;71360;43.506;1.500;2023-07-13T05:56:10;6.70;;;1.73;;
81896;SDS011;71360;43.506;1.500;2023-07-13T05:58:36;5.53;;;1.70;;
81896;SDS011;71360;43.506;1.500;2023-07-13T06:01:06;5.45;;;1.35;;
81896;SDS011;71360;43.506;1.500;2023-07-13T06:03:35;5.43;;;1.77;;
81896;SDS011;71360;43.506;1.500;2023-07-13T06:06:03;7.00;;;1.80;;
81896;SDS011;71360;43.506;1.500;2023-07-13T06:08:30;5.70;;;1.58;;
81896;SDS011;71360;43.506;1.500;2023-07-13T06:11:01;5.38;;;1.73;;
81896;SDS011;71360;43.506;1.500;2023-07-13T06:13:47;4.65;;;1.42;;
81896;SDS011;71360;43.506;1.500;2023-07-13T06:16:13;5.80;;;1.60;;
81896;SDS011;71360;43.506;1.500;2023-07-13T06:18:40;4.95;;;1.60;;
81896;SDS011;71360;43.506;1.500;2023-07-13T06:21:10;5.60;;;1.42;;
81896;SDS011;71360;43.506;1.500;2023-07-13T06:23:38;4.55;;;1.30;;
81896;SDS011;71360;43.506;1.500;2023-07-13T06:26:04;7.53;;;1.50;;
81896;SDS011;71360;43.506;1.500;2023-07-13T06:28:31;7.43;;;1.80;;
81896;SDS011;71360;43.506;1.500;2023-07-13T06:30:58;6.95;;;1.77;;
81896;SDS011;71360;43.506;1.500;2023-07-13T06:33:24;6.00;;;1.63;;
81896;SDS011;71360;43.506;1.500;2023-07-13T06:35:50;5.97;;;1.60;;
81896;SDS011;71360;43.506;1.500;2023-07-13T06:38:16;5.65;;;1.70;;
81896;SDS011;71360;43.506;1.500;2023-07-13T06:40:42;6.83;;;1.50;;
81896;SDS011;71360;43.506;1.500;2023-07-13T06:43:07;6.45;;;1.48;;
81896;SDS011;71360;43.506;1.500;2023-07-13T06:45:39;7.10;;;1.60;;
81896;SDS011;71360;43.506;1.500;2023-07-13T06:48:07;7.63;;;1.85;;
81896;SDS011;71360;43.506;1.500;2023-07-13T06:50:33;5.60;;;1.50;;
81896;SDS011;71360;43.506;1.500;2023-07-13T06:52:59;6.10;;;1.40;;
81896;SDS011;71360;43.506;1.500;2023-07-13T06:55:25;4.95;;;1.50;;
81896;SDS011;71360;43.506;1.500;2023-07-13T06:57:51;5.78;;;1.60;;
81896;SDS011;71360;43.506;1.500;2023-07-13T07:00:17;7.30;;;1.50;;
81896;SDS011;71360;43.506;1.500;2023-07-13T07:02:42;5.65;;;1.30;;
81896;SDS011;71360;43.506;1.500;2023-07-13T07:05:08;6.17;;;1.57;;
81896;SDS011;71360;43.506;1.500;2023-07-13T07:07:34;5.97;;;1.67;;
81896;SDS011;71360;43.506;1.500;2023-07-13T07:09:59;6.97;;;1.60;;
81896;SDS011;71360;43.506;1.500;2023-07-13T07:12:25;6.10;;;1.40;;
81896;SDS011;71360;43.506;1.500;2023-07-13T07:14:51;6.53;;;1.30;;
81896;SDS011;71360;43.506;1.500;2023-07-13T07:17:16;7.47;;;1.50;;
81896;SDS011;71360;43.506;1.500;2023-07-13T07:19:42;5.25;;;1.30;;
81896;SDS011;71360;43.506;1.500;2023-07-13T07:22:07;7.40;;;1.40;;
81896;SDS011;71360;43.506;1.500;2023-07-13T07:24:33;9.90;;;1.50;;
81896;SDS011;71360;43.506;1.500;2023-07-13T07:26:58;8.53;;;1.53;;
81896;SDS011;71360;43.506;1.500;2023-07-13T07:29:24;5.83;;;1.30;;
81896;SDS011;71360;43.506;1.500;2023-07-13T07:31:51;7.10;;;1.40;;
81896;SDS011;71360;43.506;1.500;2023-07-13T07:34:17;6.32;;;1.48;;
81896;SDS011;71360;43.506;1.500;2023-07-13T07:36:42;6.30;;;1.47;;
81896;SDS011;71360;43.506;1.500;2023-07-13T07:39:08;9.63;;;2.85;;
81896;SDS011;71360;43.506;1.500;2023-07-13T07:41:34;8.33;;;3.30;;
81896;SDS011;71360;43.506;1.500;2023-07-13T07:43:59;8.30;;;2.95;;
81896;SDS011;71360;43.506;1.500;2023-07-13T07:46:25;7.77;;;1.70;;
81896;SDS011;71360;43.506;1.500;2023-07-13T07:48:50;7.53;;;1.40;;
81896;SDS011;71360;43.506;1.500;2023-07-13T07:51:16;6.13;;;1.70;;
81896;SDS011;71360;43.506;1.500;2023-07-13T07:53:41;9.77;;;1.87;;
81896;SDS011;71360;43.506;1.500;2023-07-13T07:56:07;4.80;;;1.40;;
81896;SDS011;71360;43.506;1.500;2023-07-13T07:58:33;5.83;;;1.50;;
81896;SDS011;71360;43.506;1.500;2023-07-13T08:01:02;6.50;;;1.42;;
81896;SDS011;71360;43.506;1.500;2023-07-13T08:03:29;5.67;;;1.40;;
81896;SDS011;71360;43.506;1.500;2023-07-13T08:05:55;6.65;;;1.35;;
81896;SDS011;71360;43.506;1.500;2023-07-13T08:08:20;5.13;;;1.40;;
81896;SDS011;71360;43.506;1.500;2023-07-13T08:10:46;5.43;;;1.40;;
81896;SDS011;71360;43.506;1.500;2023-07-13T08:13:11;7.25;;;1.30;;
81896;SDS011;71360;43.506;1.500;2023-07-13T08:15:37;5.87;;;1.20;;
81896;SDS011;71360;43.506;1.500;2023-07-13T08:18:02;4.37;;;1.30;;
81896;SDS011;71360;43.506;1.500;2023-07-13T08:20:28;8.48;;;1.40;;
81896;SDS011;71360;43.506;1.500;2023-07-13T08:22:53;6.57;;;1.20;;
81896;SDS011;71360;43.506;1.500;2023-07-13T08:25:19;5.97;;;1.37;;
81896;SDS011;71360;43.506;1.500;2023-07-13T08:27:45;4.82;;;1.20;;
81896;SDS011;71360;43.506;1.500;2023-07-13T08:30:11;4.55;;;1.48;;
81896;SDS011;71360;43.506;1.500;2023-07-13T08:32:37;4.97;;;1.20;;
81896;SDS011;71360;43.506;1.500;2023-07-13T08:35:03;5.05;;;1.50;;
81896;SDS011;71360;43.506;1.500;2023-07-13T08:37:29;5.22;;;1.10;;
81896;SDS011;71360;43.506;1.500;2023-07-13T08:39:55;6.33;;;1.10;;
81896;SDS011;71360;43.506;1.500;2023-07-13T08:47:39;5.35;;;1.23;;
81896;SDS011;71360;43.506;1.500;2023-07-13T08:50:14;6.00;;;1.00;;
81896;SDS011;71360;43.506;1.500;2023-07-13T08:52:43;5.53;;;1.40;;
81896;SDS011;71360;43.506;1.500;2023-07-13T08:55:16;6.43;;;1.43;;
81896;SDS011;71360;43.506;1.500;2023-07-13T08:57:48;4.68;;;1.20;;
81896;SDS011;71360;43.506;1.500;2023-07-13T09:00:19;3.97;;;1.10;;
81896;SDS011;71360;43.506;1.500;2023-07-13T09:02:46;7.63;;;1.40;;
81896;SDS011;71360;43.506;1.500;2023-07-13T09:05:26;4.32;;;1.10;;
81896;SDS011;71360;43.506;1.500;2023-07-13T09:10:48;5.80;;;1.30;;
81896;SDS011;71360;43.506;1.500;2023-07-13T09:15:52;8.10;;;1.40;;
81896;SDS011;71360;43.506;1.500;2023-07-13T09:21:15;7.35;;;1.58;;
81896;SDS011;71360;43.506;1.500;2023-07-13T09:23:46;9.93;;;1.30;;
81896;SDS011;71360;43.506;1.500;2023-07-13T09:26:13;4.65;;;0.95;;
81896;SDS011;71360;43.506;1.500;2023-07-13T09:28:44;5.18;;;1.13;;
81896;SDS011;71360;43.506;1.500;2023-07-13T09:31:13;4.50;;;1.23;;
81896;SDS011;71360;43.506;1.500;2023-07-13T09:33:43;5.80;;;1.50;;
81896;SDS011;71360;43.506;1.500;2023-07-13T09:38:44;4.63;;;1.17;;
81896;SDS011;71360;43.506;1.500;2023-07-13T09:46:37;6.05;;;1.27;;
81896;SDS011;71360;43.506;1.500;2023-07-13T09:49:09;5.00;;;1.30;;
81896;SDS011;71360;43.506;1.500;2023-07-13T09:51:36;6.05;;;1.10;;
81896;SDS011;71360;43.506;1.500;2023-07-13T09:54:19;5.33;;;1.30;;
81896;SDS011;71360;43.506;1.500;2023-07-13T09:56:46;4.72;;;1.27;;
81896;SDS011;71360;43.506;1.500;2023-07-13T09:59:19;6.28;;;1.30;;
81896;SDS011;71360;43.506;1.500;2023-07-13T10:01:49;5.73;;;1.40;;
81896;SDS011;71360;43.506;1.500;2023-07-13T10:04:16;5.18;;;1.10;;
81896;SDS011;71360;43.506;1.500;2023-07-13T10:06:44;4.65;;;1.30;;
81896;SDS011;71360;43.506;1.500;2023-07-13T10:09:13;9.35;;;1.65;;
81896;SDS011;71360;43.506;1.500;2023-07-13T10:11:41;4.68;;;1.10;;
81896;SDS011;71360;43.506;1.500;2023-07-13T10:16:41;4.25;;;1.27;;
81896;SDS011;71360;43.506;1.500;2023-07-13T10:21:39;3.87;;;1.10;;
81896;SDS011;71360;43.506;1.500;2023-07-13T10:24:17;3.40;;;1.17;;
81896;SDS011;71360;43.506;1.500;2023-07-13T10:29:29;4.72;;;1.20;;
81896;SDS011;71360;43.506;1.500;2023-07-13T10:32:00;4.18;;;1.30;;
81896;SDS011;71360;43.506;1.500;2023-07-13T10:34:25;4.57;;;1.30;;
81896;SDS011;71360;43.506;1.500;2023-07-13T10:36:52;3.53;;;0.95;;
81896;SDS011;71360;43.506;1.500;2023-07-13T10:39:26;7.22;;;1.20;;
81896;SDS011;71360;43.506;1.500;2023-07-13T10:42:03;4.23;;;1.20;;
81896;SDS011;71360;43.506;1.500;2023-07-13T10:44:37;5.53;;;1.20;;
81896;SDS011;71360;43.506;1.500;2023-07-13T10:47:04;3.78;;;1.20;;
81896;SDS011;71360;43.506;1.500;2023-07-13T10:49:34;4.97;;;1.27;;
81896;SDS011;71360;43.506;1.500;2023-07-13T10:52:02;6.63;;;1.40;;
81896;SDS011;71360;43.506;1.500;2023-07-13T10:54:34;5.97;;;1.40;;
81896;SDS011;71360;43.506;1.500;2023-07-13T10:57:15;5.65;;;1.20;;
81896;SDS011;71360;43.506;1.500;2023-07-13T11:02:30;5.70;;;1.48;;
81896;SDS011;71360;43.506;1.500;2023-07-13T11:04:56;6.85;;;1.40;;
81896;SDS011;71360;43.506;1.500;2023-07-13T11:07:26;5.00;;;1.30;;
81896;SDS011;71360;43.506;1.500;2023-07-13T11:09:55;6.55;;;1.55;;
81896;SDS011;71360;43.506;1.500;2023-07-13T11:20:30;5.15;;;1.30;;
81896;SDS011;71360;43.506;1.500;2023-07-13T11:25:33;5.30;;;1.50;;
81896;SDS011;71360;43.506;1.500;2023-07-13T11:38:23;4.30;;;1.33;;
81896;SDS011;71360;43.506;1.500;2023-07-13T11:40:56;4.57;;;1.10;;
81896;SDS011;71360;43.506;1.500;2023-07-13T11:43:28;4.88;;;1.38;;
81896;SDS011;71360;43.506;1.500;2023-07-13T11:45:53;4.40;;;1.23;;
81896;SDS011;71360;43.506;1.500;2023-07-13T11:50:50;6.55;;;1.40;;
81896;SDS011;71360;43.506;1.500;2023-07-13T11:53:18;8.80;;;1.57;;
81896;SDS011;71360;43.506;1.500;2023-07-13T11:55:44;4.70;;;1.38;;
81896;SDS011;71360;43.506;1.500;2023-07-13T11:58:11;5.00;;;1.50;;
81896;SDS011;71360;43.506;1.500;2023-07-13T12:00:42;4.60;;;1.30;;
81896;SDS011;71360;43.506;1.500;2023-07-13T12:03:10;4.90;;;1.65;;
81896;SDS011;71360;43.506;1.500;2023-07-13T12:05:37;7.35;;;1.40;;
81896;SDS011;71360;43.506;1.500;2023-07-13T12:08:19;6.57;;;1.40;;
81896;SDS011;71360;43.506;1.500;2023-07-13T12:10:45;3.67;;;1.27;;
81896;SDS011;71360;43.506;1.500;2023-07-13T12:13:12;5.23;;;1.50;;
81896;SDS011;71360;43.506;1.500;2023-07-13T12:15:43;6.93;;;1.70;;
81896;SDS011;71360;43.506;1.500;2023-07-13T12:18:22;6.35;;;1.70;;
81896;SDS011;71360;43.506;1.500;2023-07-13T12:20:49;4.25;;;1.30;;
81896;SDS011;71360;43.506;1.500;2023-07-13T12:23:22;4.78;;;1.40;;
81896;SDS011;71360;43.506;1.500;2023-07-13T12:25:50;5.77;;;1.40;;
81896;SDS011;71360;43.506;1.500;2023-07-13T12:28:30;3.88;;;1.40;;
81896;SDS011;71360;43.506;1.500;2023-07-13T12:31:03;5.05;;;1.30;;
81896;SDS011;71360;43.506;1.500;2023-07-13T12:33:30;6.25;;;1.33;;
81896;SDS011;71360;43.506;1.500;2023-07-13T12:35:58;4.53;;;1.23;;
81896;SDS011;71360;43.506;1.500;2023-07-13T12:38:27;4.23;;;1.27;;
81896;SDS011;71360;43.506;1.500;2023-07-13T12:40:53;4.57;;;1.50;;
81896;SDS011;71360;43.506;1.500;2023-07-13T12:43:22;7.30;;;1.50;;
81896;SDS011;71360;43.506;1.500;2023-07-13T12:48:22;5.55;;;1.33;;
81896;SDS011;71360;43.506;1.500;2023-07-13T12:50:49;5.70;;;1.50;;
81896;SDS011;71360;43.506;1.500;2023-07-13T12:53:19;4.28;;;1.40;;
81896;SDS011;71360;43.506;1.500;2023-07-13T12:55:52;5.07;;;1.60;;
81896;SDS011;71360;43.506;1.500;2023-07-13T12:58:22;5.90;;;1.52;;
81896;SDS011;71360;43.506;1.500;2023-07-13T13:00:53;5.18;;;1.45;;
81896;SDS011;71360;43.506;1.500;2023-07-13T13:05:46;3.63;;;1.50;;
81896;SDS011;71360;43.506;1.500;2023-07-13T13:08:12;5.50;;;1.60;;
81896;SDS011;71360;43.506;1.500;2023-07-13T13:10:38;5.50;;;1.23;;
81896;SDS011;71360;43.506;1.500;2023-07-13T13:13:04;5.93;;;1.30;;
81896;SDS011;71360;43.506;1.500;2023-07-13T13:15:29;3.88;;;1.27;;
81896;SDS011;71360;43.506;1.500;2023-07-13T13:17:55;5.70;;;1.40;;
81896;SDS011;71360;43.506;1.500;2023-07-13T13:20:24;4.85;;;1.30;;
81896;SDS011;71360;43.506;1.500;2023-07-13T13:22:53;3.20;;;1.30;;
81896;SDS011;71360;43.506;1.500;2023-07-13T13:25:20;5.50;;;1.50;;
81896;SDS011;71360;43.506;1.500;2023-07-13T13:27:47;4.32;;;1.40;;
81896;SDS011;71360;43.506;1.500;2023-07-13T13:30:15;6.07;;;1.50;;
81896;SDS011;71360;43.506;1.500;2023-07-13T13:32:42;4.85;;;1.40;;
81896;SDS011;71360;43.506;1.500;2023-07-13T13:35:16;5.80;;;1.40;;
81896;SDS011;71360;43.506;1.500;2023-07-13T13:37:43;4.97;;;1.40;;
81896;SDS011;71360;43.506;1.500;2023-07-13T13:40:18;6.05;;;1.30;;
81896;SDS011;71360;43.506;1.500;2023-07-13T13:42:52;4.03;;;1.20;;
81896;SDS011;71360;43.506;1.500;2023-07-13T13:45:19;7.05;;;1.40;;
81896;SDS011;71360;43.506;1.500;2023-07-13T13:47:46;4.55;;;1.20;;
81896;SDS011;71360;43.506;1.500;2023-07-13T13:50:14;4.63;;;1.20;;
81896;SDS011;71360;43.506;1.500;2023-07-13T13:52:49;5.60;;;1.20;;
81896;SDS011;71360;43.506;1.500;2023-07-13T13:55:16;7.40;;;1.35;;
81896;SDS011;71360;43.506;1.500;2023-07-13T13:57:45;3.80;;;1.27;;
81896;SDS011;71360;43.506;1.500;2023-07-13T14:00:12;6.13;;;1.30;;
81896;SDS011;71360;43.506;1.500;2023-07-13T14:02:39;7.15;;;1.45;;
81896;SDS011;71360;43.506;1.500;2023-07-13T14:05:10;4.30;;;1.30;;
81896;SDS011;71360;43.506;1.500;2023-07-13T14:07:38;5.65;;;1.48;;
81896;SDS011;71360;43.506;1.500;2023-07-13T14:10:05;4.30;;;1.30;;
81896;SDS011;71360;43.506;1.500;2023-07-13T14:12:37;4.90;;;1.25;;
81896;SDS011;71360;43.506;1.500;2023-07-13T14:15:03;4.80;;;1.40;;
81896;SDS011;71360;43.506;1.500;2023-07-13T14:17:29;4.03;;;1.25;;
81896;SDS011;71360;43.506;1.500;2023-07-13T14:19:56;4.63;;;1.30;;
81896;SDS011;71360;43.506;1.500;2023-07-13T14:22:25;4.70;;;1.20;;
81896;SDS011;71360;43.506;1.500;2023-07-13T14:24:55;4.32;;;1.33;;
81896;SDS011;71360;43.506;1.500;2023-07-13T14:27:22;4.40;;;1.45;;
81896;SDS011;71360;43.506;1.500;2023-07-13T14:29:48;4.70;;;1.40;;
81896;SDS011;71360;43.506;1.500;2023-07-13T14:32:13;4.33;;;1.40;;
81896;SDS011;71360;43.506;1.500;2023-07-13T14:34:39;5.40;;;1.40;;
81896;SDS011;71360;43.506;1.500;2023-07-13T14:37:05;5.82;;;1.40;;
81896;SDS011;71360;43.506;1.500;2023-07-13T14:39:37;4.00;;;1.20;;
81896;SDS011;71360;43.506;1.500;2023-07-13T14:42:03;5.47;;;1.25;;
81896;SDS011;71360;43.506;1.500;2023-07-13T14:44:30;5.83;;;1.50;;
81896;SDS011;71360;43.506;1.500;2023-07-13T14:46:56;5.40;;;1.30;;
81896;SDS011;71360;43.506;1.500;2023-07-13T14:49:24;3.92;;;1.10;;
81896;SDS011;71360;43.506;1.500;2023-07-13T14:51:54;6.97;;;1.20;;
81896;SDS011;71360;43.506;1.500;2023-07-13T14:54:22;6.40;;;1.33;;
81896;SDS011;71360;43.506;1.500;2023-07-13T14:56:48;5.75;;;1.25;;
81896;SDS011;71360;43.506;1.500;2023-07-13T14:59:14;6.68;;;1.30;;
81896;SDS011;71360;43.506;1.500;2023-07-13T15:01:39;5.37;;;1.33;;
81896;SDS011;71360;43.506;1.500;2023-07-13T15:04:06;5.85;;;1.33;;
81896;SDS011;71360;43.506;1.500;2023-07-13T15:06:35;4.47;;;1.20;;
81896;SDS011;71360;43.506;1.500;2023-07-13T15:09:22;5.25;;;1.15;;
81896;SDS011;71360;43.506;1.500;2023-07-13T15:11:51;7.23;;;1.30;;
81896;SDS011;71360;43.506;1.500;2023-07-13T15:14:17;4.15;;;1.17;;
81896;SDS011;71360;43.506;1.500;2023-07-13T15:16:43;5.67;;;1.30;;
81896;SDS011;71360;43.506;1.500;2023-07-13T15:19:10;4.22;;;1.05;;
81896;SDS011;71360;43.506;1.500;2023-07-13T15:21:35;5.13;;;1.10;;
81896;SDS011;71360;43.506;1.500;2023-07-13T15:24:02;4.17;;;1.20;;
81896;SDS011;71360;43.506;1.500;2023-07-13T15:26:27;4.63;;;1.23;;
81896;SDS011;71360;43.506;1.500;2023-07-13T15:28:53;3.83;;;1.02;;
81896;SDS011;71360;43.506;1.500;2023-07-13T15:31:20;5.00;;;1.17;;
81896;SDS011;71360;43.506;1.500;2023-07-13T15:33:49;3.78;;;1.30;;
81896;SDS011;71360;43.506;1.500;2023-07-13T15:36:18;5.70;;;1.20;;
81896;SDS011;71360;43.506;1.500;2023-07-13T15:38:45;5.80;;;1.13;;
81896;SDS011;71360;43.506;1.500;2023-07-13T15:41:17;4.78;;;1.15;;
81896;SDS011;71360;43.506;1.500;2023-07-13T15:43:46;5.57;;;1.13;;
81896;SDS011;71360;43.506;1.500;2023-07-13T15:46:12;4.75;;;1.10;;
81896;SDS011;71360;43.506;1.500;2023-07-13T15:48:38;3.37;;;1.00;;
81896;SDS011;71360;43.506;1.500;2023-07-13T15:51:05;4.07;;;1.23;;
81896;SDS011;71360;43.506;1.500;2023-07-13T15:53:36;3.22;;;1.20;;